createdAt,value
2023-03-15T00:00:43.118Z,1891.00
2023-03-15T00:01:43.182Z,1893.00
2023-03-15T00:02:43.284Z,1893.00
2023-03-15T00:03:43.324Z,1885.00
2023-03-15T00:04:43.349Z,1880.00
2023-03-15T00:05:43.397Z,1875.00
2023-03-15T00:06:43.458Z,1877.00
2023-03-15T00:07:43.574Z,1875.00
2023-03-15T00:08:43.561Z,1874.00
2023-03-15T00:09:43.621Z,1876.00
2023-03-15T00:10:43.683Z,1874.00
2023-03-15T00:11:43.722Z,1875.00
2023-03-15T00:12:43.773Z,1872.00
2023-03-15T00:13:43.840Z,1868.00
2023-03-15T00:14:43.909Z,1870.00
2023-03-15T00:15:43.980Z,1871.00
2023-03-15T00:16:44.005Z,1865.00
2023-03-15T00:17:44.048Z,1862.00
2023-03-15T00:18:44.099Z,1859.00
2023-03-15T00:19:44.162Z,1862.00
2023-03-15T00:20:44.226Z,1865.00
2023-03-15T00:21:44.277Z,1858.00
2023-03-15T00:22:44.331Z,1856.00
2023-03-15T00:23:44.402Z,1853.00
2023-03-15T00:24:44.457Z,1855.00
2023-03-15T00:25:44.548Z,1851.00
2023-03-15T00:26:44.597Z,1853.00
2023-03-15T00:27:44.627Z,1851.00
2023-03-15T00:28:44.710Z,1849.00
2023-03-15T00:29:45.325Z,1848.00
2023-03-15T00:30:44.818Z,1846.00
2023-03-15T00:31:44.859Z,1851.00
2023-03-15T00:32:45.036Z,1856.00
2023-03-15T00:33:44.980Z,1854.00
2023-03-15T00:34:45.067Z,1854.00
2023-03-15T00:35:45.142Z,1857.00
2023-03-15T00:36:45.148Z,1860.00
2023-03-15T00:37:45.197Z,1863.00
2023-03-15T00:38:45.293Z,1863.00
2023-03-15T00:39:45.352Z,1862.00
2023-03-15T00:40:45.410Z,1854.00
2023-03-15T00:41:45.434Z,1852.00
2023-03-15T00:42:45.502Z,1858.00
2023-03-15T00:43:45.562Z,1858.00
2023-03-15T00:44:45.627Z,1854.00
2023-03-15T00:45:45.681Z,1856.00
2023-03-15T00:46:45.767Z,1856.00
2023-03-15T00:47:45.790Z,1855.00
2023-03-15T00:48:45.845Z,1851.00
2023-03-15T00:49:45.903Z,1848.00
2023-03-15T00:50:45.973Z,1850.00
2023-03-15T00:51:46.025Z,1847.00
2023-03-15T00:52:46.341Z,1842.00
2023-03-15T00:53:46.159Z,1839.00
2023-03-15T00:54:46.204Z,1839.00
2023-03-15T00:55:46.254Z,1839.00
2023-03-15T00:56:46.310Z,1835.00
2023-03-15T00:57:47.318Z,1834.00
2023-03-15T00:58:46.432Z,1834.00
2023-03-15T01:00:46.540Z,1838.00
2023-03-15T01:01:46.649Z,1840.00
2023-03-15T02:08:50.630Z,1802.00
2023-03-15T02:09:50.701Z,1799.00
2023-03-15T02:10:50.761Z,1798.00
2023-03-15T02:11:50.826Z,1797.00
2023-03-15T02:12:50.938Z,1797.00
2023-03-15T02:13:50.964Z,1799.00
2023-03-15T02:14:51.016Z,1796.00
2023-03-15T02:15:51.084Z,1797.00
2023-03-15T02:16:51.163Z,1801.00
2023-03-15T02:17:51.207Z,1801.00
2023-03-15T02:18:51.357Z,1803.00
2023-03-15T02:19:51.344Z,1805.00
2023-03-15T02:20:51.406Z,1804.00
2023-03-15T02:21:51.474Z,1805.00
2023-03-15T02:22:51.514Z,1803.00
2023-03-15T02:23:51.588Z,1806.00
2023-03-15T02:24:51.644Z,1801.00
2023-03-15T02:25:51.709Z,1801.00
2023-03-15T02:26:51.942Z,1798.00
2023-03-15T02:27:51.837Z,1795.00
2023-03-15T02:28:52.149Z,1791.00
2023-03-15T02:29:51.979Z,1795.00
2023-03-15T02:30:52.051Z,1794.00
2023-03-15T02:31:52.138Z,1794.00
2023-03-15T02:32:52.247Z,1790.00
2023-03-15T02:33:52.851Z,1793.00
2023-03-15T02:34:52.326Z,1786.00
2023-03-15T02:35:52.427Z,1787.00
2023-03-15T02:36:52.460Z,1788.00
2023-03-15T02:37:52.558Z,1787.00
2023-03-15T02:38:52.624Z,1782.00
2023-03-15T02:39:52.647Z,1783.00
2023-03-15T02:40:52.716Z,1781.00
2023-03-15T02:41:52.787Z,1789.00
2023-03-15T02:42:52.858Z,1791.00
2023-03-15T02:43:52.956Z,1790.00
2023-03-15T02:44:52.961Z,1784.00
2023-03-15T02:45:53.102Z,1779.00
2023-03-15T02:46:53.109Z,1779.00
2023-03-15T02:47:53.161Z,1779.00
2023-03-15T02:48:53.216Z,1780.00
2023-03-15T02:49:53.963Z,1781.00
2023-03-15T02:50:53.361Z,1780.00
2023-03-15T02:51:53.405Z,1776.00
2023-03-15T02:52:53.471Z,1777.00
2023-03-15T02:53:53.540Z,1775.00
2023-03-15T02:54:53.596Z,1776.00
2023-03-15T02:55:53.861Z,1775.00
2023-03-15T02:56:53.714Z,1771.00
2023-03-15T02:57:53.772Z,1770.00
2023-03-15T02:58:53.830Z,1770.00
2023-03-15T02:59:53.886Z,1769.00
2023-03-15T03:00:54.186Z,1771.00
2023-03-15T03:01:53.995Z,1769.00
2023-03-15T03:02:54.053Z,1771.00
2023-03-15T03:03:54.114Z,1768.00
2023-03-15T03:04:54.171Z,1767.00
2023-03-15T03:05:54.222Z,1767.00
2023-03-15T03:06:54.281Z,1766.00
2023-03-15T03:07:54.410Z,1769.00
2023-03-15T03:08:54.392Z,1765.00
2023-03-15T03:09:54.459Z,1763.00
2023-03-15T03:10:54.518Z,1761.00
2023-03-15T03:11:54.591Z,1761.00
2023-03-15T03:12:54.652Z,1760.00
2023-03-15T03:13:55.356Z,1759.00
2023-03-15T03:14:54.765Z,1760.00
2023-03-15T03:15:54.828Z,1759.00
2023-03-15T03:16:54.927Z,1756.00
2023-03-15T03:17:54.949Z,1757.00
2023-03-15T03:18:55.010Z,1758.00
2023-03-15T03:19:55.067Z,1759.00
2023-03-15T03:20:55.131Z,1752.00
2023-03-15T03:21:55.190Z,1749.00
2023-03-15T03:22:55.247Z,1754.00
2023-03-15T03:23:55.314Z,1752.00
2023-03-15T03:24:55.424Z,1754.00
2023-03-15T03:25:55.429Z,1748.00
2023-03-15T03:26:55.478Z,1742.00
2023-03-15T03:27:55.551Z,1742.00
2023-03-15T03:28:55.678Z,1740.00
2023-03-15T03:29:55.688Z,1742.00
2023-03-15T04:01:57.537Z,1712.00
2023-03-15T04:02:57.601Z,1710.00
2023-03-15T04:03:57.659Z,1706.00
2023-03-15T04:04:57.782Z,1703.00
2023-03-15T04:05:57.760Z,1707.00
2023-03-15T04:06:57.836Z,1707.00
2023-03-15T04:07:57.891Z,1706.00
2023-03-15T04:08:57.940Z,1702.00
2023-03-15T04:09:57.983Z,1697.00
2023-03-15T04:10:58.051Z,1697.00
2023-03-15T04:11:58.121Z,1704.00
2023-03-15T04:12:58.245Z,1700.00
2023-03-15T04:13:58.218Z,1697.00
2023-03-15T04:14:58.333Z,1698.00
2023-03-15T04:15:58.408Z,1693.00
2023-03-15T04:16:58.375Z,1692.00
2023-03-15T04:17:58.478Z,1698.00
2023-03-15T04:18:58.486Z,1697.00
2023-03-15T04:19:58.540Z,1704.00
2023-03-15T04:20:58.597Z,1700.00
2023-03-15T04:21:58.639Z,1698.00
2023-03-15T04:22:58.695Z,1696.00
2023-03-15T04:23:58.805Z,1692.00
2023-03-15T04:24:58.818Z,1692.00
2023-03-15T04:25:58.864Z,1691.00
2023-03-15T04:26:58.914Z,1693.00
2023-03-15T04:27:59.105Z,1688.00
2023-03-15T04:28:59.040Z,1684.00
2023-03-15T04:29:59.090Z,1692.00
2023-03-15T04:30:59.330Z,1687.00
2023-03-15T04:31:59.240Z,1685.00
2023-03-15T04:32:59.432Z,1686.00
2023-03-15T04:33:59.320Z,1683.00
2023-03-15T04:34:59.374Z,1683.00
2023-03-15T04:36:00.481Z,1685.00
2023-03-15T04:36:59.496Z,1674.00
2023-03-15T04:37:59.620Z,1676.00
2023-03-15T04:38:59.615Z,1675.00
2023-03-15T04:39:59.672Z,1676.00
2023-03-15T04:40:59.738Z,1682.00
2023-03-15T04:41:59.806Z,1684.00
2023-03-15T04:43:00.383Z,1681.00
2023-03-15T04:44:00.384Z,1679.00
2023-03-15T04:44:59.978Z,1684.00
2023-03-15T04:46:00.042Z,1689.00
2023-03-15T04:47:00.238Z,1686.00
2023-03-15T04:48:00.155Z,1689.00
2023-03-15T04:49:00.212Z,1687.00
2023-03-15T04:50:00.274Z,1681.00
2023-03-15T04:51:00.316Z,1678.00
2023-03-15T04:52:00.391Z,1682.00
2023-03-15T04:53:00.449Z,1681.00
2023-03-15T04:54:00.500Z,1683.00
2023-03-15T04:55:00.559Z,1681.00
2023-03-15T04:56:01.923Z,1679.00
2023-03-15T04:57:00.628Z,1681.00
2023-03-15T04:58:00.668Z,1678.00
2023-03-15T04:59:00.672Z,1680.00
2023-03-15T05:00:01.104Z,1678.00
2023-03-15T05:01:00.760Z,1677.00
2023-03-15T05:02:02.807Z,1678.00
2023-03-15T05:03:00.756Z,1677.00
2023-03-15T05:04:00.782Z,1678.00
2023-03-15T05:05:00.795Z,1680.00
2023-03-15T05:06:00.816Z,1679.00
2023-03-15T05:07:00.841Z,1676.00
2023-03-15T05:08:00.863Z,1675.00
2023-03-15T05:09:00.894Z,1677.00
2023-03-15T05:10:00.919Z,1674.00
2023-03-15T05:11:00.941Z,1669.00
2023-03-15T05:12:00.946Z,1666.00
2023-03-15T05:13:00.961Z,1669.00
2023-03-15T05:14:00.991Z,1669.00
2023-03-15T05:15:01.246Z,1661.00
2023-03-15T05:16:01.068Z,1661.00
2023-03-15T05:17:01.030Z,1664.00
2023-03-15T05:18:01.061Z,1661.00
2023-03-15T05:19:01.064Z,1658.00
2023-03-15T05:20:01.089Z,1653.00
2023-03-15T05:21:01.146Z,1648.00
2023-03-15T05:22:01.140Z,1646.00
2023-03-15T05:23:01.182Z,1646.00
2023-03-15T05:24:01.178Z,1648.00
2023-03-15T05:25:01.190Z,1650.00
2023-03-15T05:26:01.226Z,1648.00
2023-03-15T05:27:01.220Z,1651.00
2023-03-15T05:28:01.245Z,1648.00
2023-03-15T05:29:01.261Z,1649.00
2023-03-15T05:30:01.295Z,1649.00
2023-03-15T05:31:01.318Z,1647.00
2023-03-15T05:32:01.402Z,1644.00
2023-03-15T05:33:01.357Z,1644.00
2023-03-15T05:34:01.365Z,1645.00
2023-03-15T05:35:01.405Z,1645.00
2023-03-15T05:36:01.427Z,1647.00
2023-03-15T05:37:01.441Z,1651.00
2023-03-15T05:38:02.402Z,1650.00
2023-03-15T05:39:01.476Z,1645.00
2023-03-15T05:40:01.501Z,1646.00
2023-03-15T05:41:01.574Z,1642.00
2023-03-15T05:42:01.549Z,1640.00
2023-03-15T05:43:01.571Z,1644.00
2023-03-15T05:44:01.594Z,1643.00
2023-03-15T05:45:01.624Z,1644.00
2023-03-15T05:46:01.674Z,1644.00
2023-03-15T05:47:01.704Z,1638.00
2023-03-15T05:48:01.690Z,1638.00
2023-03-15T05:49:01.701Z,1642.00
2023-03-15T05:50:01.737Z,1651.00
2023-03-15T05:51:01.733Z,1643.00
2023-03-15T05:52:01.777Z,1646.00
2023-03-15T05:53:01.784Z,1642.00
2023-03-15T05:54:01.804Z,1642.00
2023-03-15T05:55:01.876Z,1647.00
2023-03-15T05:56:01.912Z,1650.00
2023-03-15T05:57:01.842Z,1652.00
2023-03-15T05:58:01.856Z,1650.00
2023-03-15T05:59:01.877Z,1645.00
2023-03-15T06:00:01.912Z,1644.00
2023-03-15T06:01:01.930Z,1644.00
2023-03-15T06:02:01.942Z,1644.00
2023-03-15T06:03:02.001Z,1642.00
2023-03-15T06:04:01.981Z,1644.00
2023-03-15T06:05:01.996Z,1649.00
2023-03-15T06:06:02.006Z,1646.00
2023-03-15T06:07:02.037Z,1643.00
2023-03-15T06:08:02.056Z,1640.00
2023-03-15T06:09:02.188Z,1631.00
2023-03-15T06:10:02.094Z,1629.00
2023-03-15T06:11:02.131Z,1629.00
2023-03-15T06:12:02.182Z,1631.00
2023-03-15T06:13:02.226Z,1632.00
2023-03-15T06:14:02.284Z,1628.00
2023-03-15T06:15:02.336Z,1625.00
2023-03-15T06:16:02.393Z,1625.00
2023-03-15T06:17:03.403Z,1624.00
2023-03-15T06:18:02.499Z,1627.00
2023-03-15T06:19:02.558Z,1623.00
2023-03-15T06:20:02.652Z,1623.00
2023-03-15T06:21:02.645Z,1618.00
2023-03-15T06:22:02.740Z,1622.00
2023-03-15T06:23:02.816Z,1623.00
2023-03-15T06:24:02.830Z,1622.00
2023-03-15T06:25:02.862Z,1623.00
2023-03-15T06:26:03.017Z,1626.00
2023-03-15T06:27:02.951Z,1636.00
2023-03-15T06:28:03.035Z,1648.00
2023-03-15T06:29:03.907Z,1659.00
2023-03-15T06:30:03.413Z,1659.00
2023-03-15T06:31:03.255Z,1659.00
2023-03-15T06:32:03.157Z,1667.00
2023-03-15T06:33:03.296Z,1676.00
2023-03-15T06:34:03.336Z,1685.00
2023-03-15T06:35:03.350Z,1690.00
2023-03-15T06:36:03.332Z,1695.00
2023-03-15T06:37:04.329Z,1704.00
2023-03-15T06:38:04.335Z,1716.00
2023-03-15T06:39:03.433Z,1724.00
2023-03-15T06:40:03.603Z,1727.00
2023-03-15T06:41:03.468Z,1730.00
2023-03-15T06:42:03.496Z,1727.00
2023-03-15T06:43:03.519Z,1723.00
2023-03-15T06:44:03.651Z,1714.00
2023-03-15T06:45:03.774Z,1698.00
2023-03-15T06:46:03.906Z,1698.00
2023-03-15T06:47:03.993Z,1703.00
2023-03-15T06:48:04.037Z,1715.00
2023-03-15T06:49:04.037Z,1715.00
2023-03-15T06:50:04.071Z,1718.00
2023-03-15T06:51:04.117Z,1721.00
2023-03-15T06:52:04.137Z,1716.00
2023-03-15T06:53:04.220Z,1713.00
2023-03-15T06:54:04.372Z,1715.00
2023-03-15T06:55:04.339Z,1700.00
2023-03-15T06:56:04.440Z,1704.00
2023-03-15T06:57:04.362Z,1707.00
2023-03-15T06:58:04.399Z,1711.00
2023-03-15T06:59:04.407Z,1713.00
2023-03-15T07:00:04.500Z,1727.00
2023-03-15T07:01:04.710Z,1727.00
2023-03-15T07:02:04.707Z,1730.00
2023-03-15T07:03:04.637Z,1728.00
2023-03-15T07:04:06.102Z,1726.00
2023-03-15T07:05:04.682Z,1724.00
2023-03-15T07:06:04.689Z,1726.00
2023-03-15T07:07:04.705Z,1709.00
2023-03-15T07:08:04.707Z,1703.00
2023-03-15T07:09:04.729Z,1713.00
2023-03-15T07:10:04.930Z,1744.00
2023-03-15T07:11:04.740Z,1743.00
2023-03-15T07:12:04.767Z,1721.00
2023-03-15T07:13:04.770Z,1712.00
2023-03-15T07:14:04.808Z,1714.00
2023-03-15T07:15:04.803Z,1721.00
2023-03-15T07:16:04.890Z,1719.00
2023-03-15T07:17:04.897Z,1714.00
2023-03-15T07:18:04.839Z,1711.00
2023-03-15T07:19:04.869Z,1715.00
2023-03-15T07:20:04.962Z,1732.00
2023-03-15T07:21:04.870Z,1792.00
2023-03-15T07:22:04.889Z,1749.00
2023-03-15T07:23:04.917Z,1714.00
2023-03-15T07:24:04.895Z,1740.00
2023-03-15T07:25:04.994Z,1801.00
2023-03-15T07:26:04.980Z,1850.00
2023-03-15T07:27:04.988Z,1869.00
2023-03-15T07:28:04.961Z,1929.00
2023-03-15T07:29:04.941Z,1965.00
2023-03-15T07:30:04.987Z,1992.00
2023-03-15T07:31:04.998Z,1999.00
2023-03-15T07:32:05.037Z,2040.00
2023-03-15T07:33:05.025Z,2090.00
2023-03-15T07:34:05.001Z,2124.00
2023-03-15T07:35:04.998Z,2165.00
2023-03-15T07:36:05.098Z,2174.00
2023-03-15T07:37:05.031Z,2189.00
2023-03-15T07:38:05.019Z,2211.00
2023-03-15T07:39:06.010Z,2223.00
2023-03-15T07:40:05.029Z,2232.00
2023-03-15T07:41:05.044Z,2240.00
2023-03-15T07:42:05.032Z,2260.00
2023-03-15T07:43:05.027Z,2323.00
2023-03-15T07:44:05.104Z,2338.00
2023-03-15T07:45:05.073Z,2351.00
2023-03-15T07:46:05.027Z,2397.00
2023-03-15T07:47:05.035Z,2413.00
2023-03-15T07:48:05.851Z,2428.00
2023-03-15T07:49:05.036Z,2453.00
2023-03-15T07:50:05.121Z,2493.00
2023-03-15T07:51:05.065Z,2512.00
2023-03-15T07:52:05.055Z,2526.00
2023-03-15T07:53:05.052Z,2540.00
2023-03-15T07:54:07.929Z,2553.00
2023-03-15T07:55:05.146Z,2572.00
2023-03-15T07:56:05.067Z,2596.00
2023-03-15T07:57:05.071Z,2615.00
2023-03-15T07:58:05.051Z,2640.00
2023-03-15T07:59:05.080Z,2660.00
2023-03-15T08:00:05.067Z,2670.00
2023-03-15T08:01:05.058Z,2693.00
2023-03-15T08:02:05.120Z,2718.00
2023-03-15T08:03:05.083Z,2742.00
2023-03-15T08:04:05.045Z,2763.00
2023-03-15T08:54:05.337Z,3052.00
2023-03-15T08:55:05.344Z,3121.00
2023-03-15T08:56:05.335Z,3133.00
2023-03-15T08:57:05.330Z,3157.00
2023-03-15T08:58:05.333Z,3159.00
2023-03-15T08:59:05.351Z,3194.00
2023-03-15T09:00:05.362Z,3230.00
2023-03-15T09:02:05.416Z,3308.00
2023-03-15T09:03:05.416Z,3358.00
2023-03-15T09:04:05.468Z,3403.00
2023-03-15T09:05:05.470Z,3424.00
2023-03-15T09:06:06.464Z,3442.00
2023-03-15T09:08:05.539Z,3490.00
2023-03-15T09:09:05.566Z,3519.00
2023-03-15T09:10:05.773Z,3569.00
2023-03-15T09:11:05.621Z,3595.00
2023-03-15T09:14:05.753Z,3730.00
2023-03-15T09:15:07.875Z,3604.00
2023-03-15T09:16:05.867Z,3371.00
2023-03-15T09:17:05.940Z,3302.00
2023-03-15T09:18:05.925Z,3306.00
2023-03-15T09:23:06.058Z,3309.00
2023-03-15T09:54:07.138Z,2099.00
2023-03-15T09:55:07.493Z,2085.00
2023-03-15T09:56:07.190Z,2074.00
2023-03-15T10:32:08.881Z,1987.00
2023-03-15T10:33:08.985Z,1890.00
2023-03-15T10:34:09.897Z,1874.00
2023-03-15T10:35:08.998Z,1848.00
2023-03-15T10:36:11.362Z,1860.00
2023-03-15T10:37:09.288Z,1864.00
2023-03-15T10:38:09.328Z,1897.00
2023-03-15T10:39:09.363Z,1917.00
2023-03-15T10:40:09.425Z,1876.00
2023-03-15T10:41:10.015Z,1835.00
2023-03-15T10:42:09.544Z,1842.00
2023-03-15T10:43:10.275Z,1848.00
2023-03-15T10:44:09.683Z,1846.00
2023-03-15T10:45:09.738Z,1830.00
2023-03-15T10:46:09.911Z,1830.00
2023-03-15T10:47:22.633Z,1824.00
2023-03-15T10:48:10.864Z,1814.00
2023-03-15T10:49:09.861Z,1827.00
2023-03-15T10:50:09.877Z,1831.00
2023-03-15T10:51:09.868Z,1827.00
2023-03-15T10:52:09.878Z,1815.00
2023-03-15T10:53:10.088Z,1811.00
2023-03-15T10:54:09.882Z,1804.00
2023-03-15T10:55:10.481Z,1801.00
2023-03-15T10:56:09.922Z,1800.00
2023-03-15T10:57:09.981Z,1806.00
2023-03-15T10:58:10.058Z,1808.00
2023-03-15T10:59:12.972Z,1803.00
2023-03-15T11:01:10.246Z,1774.00
2023-03-15T11:02:11.041Z,1786.00
2023-03-15T11:03:10.165Z,1787.00
2023-03-15T11:04:10.281Z,1796.00
2023-03-15T11:05:10.159Z,1791.00
2023-03-15T11:06:10.158Z,1778.00
2023-03-15T11:07:10.154Z,1778.00
2023-03-15T11:08:10.247Z,1776.00
2023-03-15T11:09:10.168Z,1760.00
2023-03-15T11:10:10.166Z,1758.00
2023-03-15T11:31:10.679Z,1715.00
2023-03-15T11:32:10.651Z,1724.00
2023-03-15T11:33:10.722Z,1719.00
2023-03-15T11:34:10.817Z,1712.00
2023-03-15T11:35:10.856Z,1703.00
2023-03-15T11:36:12.360Z,1705.00
2023-03-15T11:37:12.766Z,1703.00
2023-03-15T11:38:15.435Z,1699.00
2023-03-15T11:39:11.061Z,1697.00
2023-03-15T11:40:12.753Z,1692.00
2023-03-15T11:41:11.070Z,1693.00
2023-03-15T11:42:11.297Z,1692.00
2023-03-15T11:43:11.150Z,1693.00
2023-03-15T11:44:11.082Z,1690.00
2023-03-15T11:45:11.084Z,1690.00
2023-03-15T11:46:11.268Z,1690.00
2023-03-15T11:47:11.229Z,1688.00
2023-03-15T11:48:11.307Z,1679.00
2023-03-15T11:49:11.374Z,1678.00
2023-03-15T11:50:11.435Z,1677.00
2023-03-15T11:51:11.589Z,1675.00
2023-03-15T11:52:11.569Z,1672.00
2023-03-15T11:53:11.647Z,1669.00
2023-03-15T11:54:11.715Z,1668.00
2023-03-15T11:55:11.788Z,1670.00
2023-03-15T11:56:11.866Z,1668.00
2023-03-15T11:57:11.933Z,1660.00
2023-03-15T11:58:12.000Z,1661.00
2023-03-15T11:59:12.076Z,1662.00
2023-03-15T12:00:12.233Z,1662.00
2023-03-15T12:01:12.240Z,1656.00
2023-03-15T12:02:13.015Z,1651.00
2023-03-15T12:03:12.405Z,1653.00
2023-03-15T12:04:14.471Z,1653.00
2023-03-15T12:05:18.014Z,1658.00
2023-03-15T12:06:13.454Z,1660.00
2023-03-15T12:07:12.546Z,1661.00
2023-03-15T12:08:12.472Z,1658.00
2023-03-15T12:09:12.487Z,1657.00
2023-03-15T12:10:12.489Z,1651.00
2023-03-15T12:11:12.528Z,1652.00
2023-03-15T12:12:12.508Z,1652.00
2023-03-15T12:13:12.506Z,1646.00
2023-03-15T12:14:12.526Z,1633.00
2023-03-15T12:15:13.583Z,1631.00
2023-03-15T12:16:12.745Z,1632.00
2023-03-15T12:17:12.728Z,1621.00
2023-03-15T12:18:15.513Z,1618.00
2023-03-15T12:19:12.786Z,1618.00
2023-03-15T12:20:12.822Z,1619.00
2023-03-15T12:21:12.788Z,1619.00
2023-03-15T12:22:12.787Z,1625.00
2023-03-15T12:23:12.784Z,1629.00
2023-03-15T12:24:12.786Z,1624.00
2023-03-15T12:25:12.796Z,1624.00
2023-03-15T12:26:12.881Z,1620.00
2023-03-15T12:27:12.799Z,1613.00
2023-03-15T12:28:12.795Z,1618.00
2023-03-15T12:29:12.823Z,1625.00
2023-03-15T12:30:13.018Z,1633.00
2023-03-15T12:31:12.915Z,1628.00
2023-03-15T12:32:12.832Z,1628.00
2023-03-15T12:33:12.849Z,1625.00
2023-03-15T12:34:12.842Z,1617.00
2023-03-15T12:35:15.387Z,1610.00
2023-03-15T12:36:13.157Z,1605.00
2023-03-15T12:37:13.183Z,1607.00
2023-03-15T12:38:13.250Z,1607.00
2023-03-15T12:39:13.366Z,1608.00
2023-03-15T12:40:13.438Z,1607.00
2023-03-15T12:41:13.483Z,1607.00
2023-03-15T12:42:13.513Z,1606.00
2023-03-15T12:43:13.580Z,1602.00
2023-03-15T12:44:13.664Z,1591.00
2023-03-15T12:45:13.714Z,1594.00
2023-03-15T12:46:13.828Z,1594.00
2023-03-15T12:47:13.853Z,1595.00
2023-03-15T12:48:13.950Z,1597.00
2023-03-15T12:49:13.999Z,1599.00
2023-03-15T12:50:14.280Z,1595.00
2023-03-15T12:51:14.224Z,1594.00
2023-03-15T12:52:14.201Z,1593.00
2023-03-15T12:53:14.273Z,1593.00
2023-03-15T12:54:14.388Z,1591.00
2023-03-15T12:55:14.413Z,1588.00
2023-03-15T12:56:14.560Z,1584.00
2023-03-15T12:57:14.556Z,1586.00
2023-03-15T12:58:15.508Z,1589.00
2023-03-15T12:59:14.690Z,1591.00
2023-03-15T13:00:14.760Z,1589.00
2023-03-15T13:01:14.876Z,1590.00
2023-03-15T13:02:14.897Z,1596.00
2023-03-15T13:03:14.976Z,1596.00
2023-03-15T13:04:15.933Z,1602.00
2023-03-15T13:05:15.107Z,1600.00
2023-03-15T13:06:15.182Z,1601.00
2023-03-15T13:07:15.251Z,1604.00
2023-03-15T13:08:15.324Z,1602.00
2023-03-15T13:09:15.390Z,1597.00
2023-03-15T13:10:15.467Z,1596.00
2023-03-15T13:11:15.576Z,1594.00
2023-03-15T13:12:15.601Z,1593.00
2023-03-15T13:13:16.437Z,1592.00
2023-03-15T13:14:15.738Z,1592.00
2023-03-15T13:15:15.827Z,1598.00
2023-03-15T13:16:15.999Z,1605.00
2023-03-15T13:17:15.965Z,1610.00
2023-03-15T13:18:16.007Z,1613.00
2023-03-15T13:19:16.166Z,1611.00
2023-03-15T13:20:16.155Z,1606.00
2023-03-15T13:21:16.205Z,1608.00
2023-03-15T13:22:16.282Z,1607.00
2023-03-15T13:23:16.351Z,1598.00
2023-03-15T13:24:17.022Z,1601.00
2023-03-15T13:25:16.495Z,1604.00
2023-03-15T13:26:16.566Z,1606.00
2023-03-15T13:27:16.639Z,1609.00
2023-03-15T13:28:16.722Z,1608.00
2023-03-15T13:29:16.762Z,1609.00
2023-03-15T13:30:16.848Z,1606.00
2023-03-15T13:31:16.971Z,1606.00
2023-03-15T13:32:16.996Z,1608.00
2023-03-15T13:33:17.052Z,1606.00
2023-03-15T13:34:17.124Z,1604.00
2023-03-15T13:35:17.198Z,1606.00
2023-03-15T13:36:17.265Z,1605.00
2023-03-15T14:13:22.546Z,1584.00
2023-03-15T14:59:20.625Z,1539.00
2023-03-15T15:00:20.799Z,1543.00
2023-03-15T15:01:20.791Z,1543.00
2023-03-15T15:02:20.874Z,1543.00
2023-03-15T15:03:20.882Z,1540.00
2023-03-15T15:04:21.020Z,1534.00
2023-03-15T15:05:21.076Z,1536.00
2023-03-15T15:06:21.106Z,1538.00
2023-03-15T15:07:21.197Z,1537.00
2023-03-15T15:08:21.268Z,1538.00
2023-03-15T15:09:21.337Z,1537.00
2023-03-15T15:10:22.060Z,1539.00
2023-03-15T15:11:21.565Z,1536.00
2023-03-15T15:12:21.571Z,1535.00
2023-03-15T15:13:21.635Z,1534.00
2023-03-15T15:14:21.730Z,1537.00
2023-03-15T15:15:21.781Z,1537.00
2023-03-15T15:16:21.875Z,1534.00
2023-03-15T15:17:21.891Z,1534.00
2023-03-15T15:18:21.980Z,1533.00
2023-03-15T15:19:22.054Z,1533.00
2023-03-15T15:20:22.102Z,1533.00
2023-03-15T15:21:22.153Z,1534.00
2023-03-15T15:22:22.232Z,1533.00
2023-03-15T15:23:22.321Z,1526.00
2023-03-15T15:24:22.411Z,1524.00
2023-03-15T15:25:22.472Z,1522.00
2023-03-15T15:26:22.542Z,1523.00
2023-03-15T15:27:22.717Z,1520.00
2023-03-15T15:28:34.002Z,1524.00
2023-03-15T15:29:23.675Z,1529.00
2023-03-15T15:30:22.682Z,1530.00
2023-03-15T15:31:22.859Z,1531.00
2023-03-15T15:32:23.681Z,1527.00
2023-03-15T15:33:22.717Z,1525.00
2023-03-15T15:34:22.744Z,1523.00
2023-03-15T15:35:22.740Z,1526.00
2023-03-15T15:36:22.741Z,1524.00
2023-03-15T15:37:22.779Z,1522.00
2023-03-15T15:38:22.857Z,1522.00
2023-03-15T15:39:22.922Z,1528.00
2023-03-15T15:40:23.560Z,1522.00
2023-03-15T15:41:22.983Z,1516.00
2023-03-15T15:42:23.067Z,1513.00
2023-03-15T15:43:23.003Z,1502.00
2023-03-15T15:44:23.017Z,1506.00
2023-03-15T15:45:23.043Z,1511.00
2023-03-15T15:46:23.257Z,1511.00
2023-03-15T15:47:23.116Z,1510.00
2023-03-15T15:48:23.244Z,1507.00
2023-03-15T18:35:31.110Z,1456.00
2023-03-15T18:41:30.643Z,1459.00
2023-03-15T18:42:30.696Z,1458.00
2023-03-15T18:43:30.741Z,1455.00
2023-03-15T18:44:30.793Z,1454.00
2023-03-15T18:45:30.830Z,1450.00
2023-03-15T18:46:30.937Z,1449.00
2023-03-15T18:47:30.908Z,1449.00
2023-03-15T18:48:40.588Z,1450.00
2023-03-15T18:49:31.975Z,1448.00
2023-03-15T18:50:30.994Z,1457.00
2023-03-15T18:51:31.007Z,1458.00
2023-03-15T18:52:31.017Z,1456.00
2023-03-15T18:53:31.112Z,1463.00
2023-03-15T18:54:31.074Z,1453.00
2023-03-15T18:55:31.091Z,1452.00
2023-03-15T18:56:31.116Z,1457.00
2023-03-15T18:57:31.139Z,1457.00
2023-03-15T18:58:31.137Z,1454.00
2023-03-15T18:59:32.146Z,1451.00
2023-03-15T19:00:31.171Z,1450.00
2023-03-15T19:01:31.219Z,1448.00
2023-03-15T19:02:31.248Z,1446.00
2023-03-15T19:03:31.196Z,1449.00
2023-03-15T19:04:31.213Z,1448.00
2023-03-15T19:05:31.226Z,1451.00
2023-03-15T19:06:31.239Z,1443.00
2023-03-15T19:07:31.302Z,1442.00
2023-03-15T19:08:31.278Z,1445.00
2023-03-15T19:09:31.401Z,1449.00
2023-03-15T19:10:31.376Z,1448.00
2023-03-15T19:11:31.417Z,1445.00
2023-03-15T19:12:31.449Z,1446.00
2023-03-15T19:13:31.502Z,1447.00
2023-03-15T19:14:31.550Z,1447.00
2023-03-15T19:15:31.619Z,1442.00
2023-03-15T19:16:31.688Z,1445.00
2023-03-15T19:17:31.705Z,1447.00
2023-03-15T19:18:31.835Z,1449.00
2023-03-15T19:19:32.123Z,1450.00
2023-03-15T19:20:31.866Z,1450.00
2023-03-15T19:21:31.883Z,1446.00
2023-03-15T19:22:31.940Z,1445.00
2023-03-15T19:23:32.008Z,1441.00
2023-03-15T19:32:32.475Z,1439.00
2023-03-15T19:33:32.508Z,1436.00
2023-03-15T19:34:32.557Z,1438.00
2023-03-15T19:35:33.641Z,1438.00
2023-03-15T19:36:32.653Z,1443.00
2023-03-15T19:37:32.711Z,1439.00
2023-03-15T19:38:32.771Z,1433.00
2023-03-15T19:39:32.811Z,1438.00
2023-03-15T19:40:32.869Z,1433.00
2023-03-15T19:41:33.004Z,1433.00
2023-03-15T19:42:32.982Z,1428.00
2023-03-15T19:43:33.017Z,1426.00
2023-03-15T19:44:33.083Z,1430.00
2023-03-15T19:45:33.142Z,1431.00
2023-03-15T19:46:33.212Z,1432.00
2023-03-15T19:47:33.238Z,1433.00
2023-03-15T19:48:33.291Z,1432.00
2023-03-15T19:49:33.425Z,1429.00
2023-03-15T19:50:33.384Z,1433.00
2023-03-15T19:51:33.479Z,1429.00
2023-03-15T19:52:33.474Z,1428.00
2023-03-15T19:53:33.526Z,1430.00
2023-03-15T19:54:33.578Z,1435.00
2023-03-15T19:55:33.626Z,1439.00
2023-03-15T19:56:33.689Z,1434.00
2023-03-15T19:57:33.720Z,1435.00
2023-03-15T19:58:33.834Z,1434.00
2023-03-15T19:59:33.822Z,1432.00
2023-03-15T20:00:33.867Z,1429.00
2023-03-15T20:01:33.991Z,1426.00
2023-03-15T20:02:34.933Z,1426.00
2023-03-15T20:03:33.974Z,1422.00
2023-03-15T20:04:33.989Z,1421.00
2023-03-15T20:05:34.139Z,1424.00
2023-03-15T20:06:34.003Z,1425.00
2023-03-15T20:07:34.022Z,1424.00
2023-03-15T20:08:34.041Z,1422.00
2023-03-15T20:09:34.070Z,1420.00
2023-03-15T20:10:34.092Z,1421.00
2023-03-15T20:11:34.122Z,1416.00
2023-03-15T22:15:40.648Z,1371.00
2023-03-15T22:16:40.742Z,1371.00
2023-03-15T22:17:40.764Z,1372.00
2023-03-15T22:18:40.824Z,1377.00
2023-03-15T22:19:40.884Z,1375.00
2023-03-15T22:20:40.943Z,1373.00
2023-03-15T22:21:41.019Z,1371.00
2023-03-15T22:22:41.093Z,1369.00
2023-03-15T22:23:41.171Z,1372.00
2023-03-15T22:24:41.230Z,1366.00
2023-03-15T22:25:41.281Z,1361.00
2023-03-15T22:26:41.350Z,1360.00
2023-03-15T22:27:41.431Z,1368.00
2023-03-15T22:28:41.536Z,1371.00
2023-03-15T22:29:41.659Z,1366.00
2023-03-15T22:30:41.653Z,1364.00